createdAt,value
2022-09-17T00:01:32.156Z,12.93
2022-09-17T00:06:32.029Z,13.02
2022-09-17T00:11:33.777Z,13.02
2022-09-17T00:16:32.065Z,13.20
2022-09-17T00:21:31.838Z,13.14
2022-09-17T00:26:32.043Z,13.22
2022-09-17T00:31:31.778Z,13.17
2022-09-17T00:36:31.658Z,13.24
2022-09-17T00:41:31.576Z,13.21
2022-09-17T00:46:31.703Z,13.21
2022-09-17T00:51:31.510Z,13.41
2022-09-17T00:56:31.401Z,13.51
2022-09-17T01:01:31.379Z,13.62
2022-09-17T01:06:31.248Z,13.63
2022-09-17T01:11:31.182Z,13.73
2022-09-17T01:16:31.279Z,13.62
2022-09-17T01:21:31.048Z,13.54
2022-09-17T01:26:30.995Z,13.62
2022-09-17T01:31:31.086Z,13.63
2022-09-17T01:36:30.976Z,13.77
2022-09-17T01:41:30.797Z,13.79
2022-09-17T01:46:30.809Z,13.79
2022-09-17T01:51:30.710Z,13.77
2022-09-17T01:56:30.656Z,13.95
2022-09-17T02:01:30.565Z,13.91
2022-09-17T02:06:30.467Z,13.71
2022-09-17T02:11:30.530Z,13.89
2022-09-17T02:16:30.439Z,13.92
2022-09-17T02:21:31.319Z,13.79
2022-09-17T02:26:30.223Z,13.67
2022-09-17T02:31:30.218Z,13.61
2022-09-17T02:36:30.109Z,13.58
2022-09-17T02:41:30.040Z,13.30
2022-09-17T02:46:30.046Z,13.24
2022-09-17T02:51:29.898Z,13.43
2022-09-17T02:56:29.873Z,13.52
2022-09-17T03:01:29.766Z,13.51
2022-09-17T03:06:29.701Z,13.44
2022-09-17T03:11:29.633Z,13.29
2022-09-17T03:16:29.697Z,13.30
2022-09-17T03:21:29.536Z,13.33
2022-09-17T03:26:29.465Z,13.25
2022-09-17T03:31:29.493Z,13.25
2022-09-17T03:36:29.349Z,13.41
2022-09-17T03:41:29.268Z,13.41
2022-09-17T03:46:29.914Z,13.29
2022-09-17T03:51:29.133Z,13.43
2022-09-17T03:56:29.073Z,13.51
2022-09-17T04:01:29.077Z,13.65
2022-09-17T04:06:28.953Z,13.71
2022-09-17T04:11:28.873Z,13.51
2022-09-17T04:16:28.871Z,13.44
2022-09-17T04:21:28.868Z,13.41
2022-09-17T04:26:28.709Z,13.40
2022-09-17T04:31:28.713Z,13.27
2022-09-17T04:36:28.581Z,13.22
2022-09-17T04:41:28.534Z,13.14
2022-09-17T04:46:28.503Z,13.03
2022-09-17T04:51:28.361Z,13.06
2022-09-17T04:56:28.288Z,12.89
2022-09-17T05:01:28.283Z,13.06
2022-09-17T05:06:28.207Z,12.85
2022-09-17T05:11:28.097Z,12.85
2022-09-17T05:16:28.108Z,12.75
2022-09-17T05:21:28.003Z,12.81
2022-09-17T05:26:28.078Z,12.84
2022-09-17T05:31:27.911Z,12.85
2022-09-17T05:36:27.879Z,12.79
2022-09-17T05:41:27.738Z,12.84
2022-09-17T05:46:27.740Z,12.82
2022-09-17T05:51:27.589Z,12.97
2022-09-17T05:56:27.527Z,13.22
2022-09-17T06:01:27.507Z,13.27
2022-09-17T06:06:27.403Z,13.43
2022-09-17T06:11:27.317Z,13.43
2022-09-17T06:16:27.339Z,13.51
2022-09-17T06:21:27.247Z,13.49
2022-09-17T06:26:27.140Z,13.44
2022-09-17T06:31:27.287Z,13.51
2022-09-17T06:36:26.999Z,13.58
2022-09-17T06:41:26.957Z,13.55
2022-09-17T06:46:26.983Z,13.62
2022-09-17T06:51:26.922Z,13.74
2022-09-17T06:56:26.723Z,13.79
2022-09-17T07:01:26.714Z,13.83
2022-09-17T07:06:26.602Z,13.98
2022-09-17T07:11:26.530Z,13.92
2022-09-17T07:16:26.523Z,13.61
2022-09-17T07:21:26.408Z,13.79
2022-09-17T07:26:26.382Z,13.41
2022-09-17T07:31:26.531Z,13.25
2022-09-17T07:36:26.386Z,13.22
2022-09-17T07:41:26.109Z,13.14
2022-09-17T07:46:26.259Z,13.47
2022-09-17T07:51:26.004Z,13.58
2022-09-17T07:56:25.931Z,13.81
2022-09-17T08:01:25.924Z,14.07
2022-09-17T08:06:25.805Z,14.09
2022-09-17T08:11:54.341Z,14.14
2022-09-17T08:16:26.761Z,14.29
2022-09-17T08:21:25.582Z,14.29
2022-09-17T08:26:25.526Z,14.68
2022-09-17T08:31:25.584Z,15.28
2022-09-17T08:36:25.409Z,15.38
2022-09-17T08:41:25.369Z,15.48
2022-09-17T08:46:25.344Z,15.35
2022-09-17T08:51:25.195Z,15.46
2022-09-17T08:56:26.616Z,15.74
2022-09-17T09:01:25.159Z,16.15
2022-09-17T09:06:24.990Z,16.26
2022-09-17T09:11:24.952Z,15.70
2022-09-17T09:16:24.975Z,15.51
2022-09-17T09:21:25.006Z,15.82
2022-09-17T09:26:24.749Z,16.49
2022-09-17T09:31:24.802Z,17.43
2022-09-17T09:36:24.620Z,17.25
2022-09-17T09:41:24.528Z,17.04
2022-09-17T09:46:24.593Z,17.07
2022-09-17T09:51:24.460Z,17.71
2022-09-17T09:56:24.380Z,17.14
2022-09-17T10:01:24.410Z,16.01
2022-09-17T10:06:24.219Z,16.67
2022-09-17T10:11:27.264Z,16.96
2022-09-17T10:16:24.127Z,16.74
2022-09-17T10:21:24.023Z,16.25
2022-09-17T10:26:23.978Z,16.85
2022-09-17T10:31:24.009Z,15.76
2022-09-17T10:36:23.981Z,16.38
2022-09-17T10:41:23.745Z,15.56
2022-09-17T10:46:27.399Z,15.52
2022-09-17T10:51:23.660Z,15.74
2022-09-17T10:56:23.686Z,16.74
2022-09-17T11:01:23.684Z,17.25
2022-09-17T11:06:23.504Z,17.47
2022-09-17T11:11:23.355Z,17.30
2022-09-17T11:16:23.414Z,16.89
2022-09-17T11:21:23.239Z,16.77
2022-09-17T11:26:23.190Z,16.53
2022-09-17T11:31:24.511Z,17.20
2022-09-17T11:36:23.026Z,18.37
2022-09-17T11:41:23.199Z,18.73
2022-09-17T11:46:23.656Z,17.26
2022-09-17T11:51:23.085Z,15.11
2022-09-17T11:56:22.797Z,14.02
2022-09-17T12:01:22.755Z,13.69
2022-09-17T12:06:22.640Z,13.84
2022-09-17T12:11:22.571Z,14.28
2022-09-17T12:16:22.640Z,15.02
2022-09-17T12:21:22.539Z,14.74
2022-09-17T12:26:22.362Z,14.46
2022-09-17T12:31:22.456Z,14.34
2022-09-17T12:36:22.268Z,14.75
2022-09-17T12:41:23.598Z,15.20
2022-09-17T12:46:22.210Z,15.61
2022-09-17T12:51:22.223Z,15.99
2022-09-17T12:56:21.982Z,16.31
2022-09-17T13:01:22.362Z,16.30
2022-09-17T13:06:21.910Z,16.20
2022-09-17T13:11:21.794Z,16.59
2022-09-17T13:16:21.757Z,16.40
2022-09-17T13:21:21.641Z,16.22
2022-09-17T13:26:21.588Z,15.61
2022-09-17T13:31:21.614Z,15.26
2022-09-17T13:36:22.236Z,14.91
2022-09-17T13:41:21.387Z,14.69
2022-09-17T13:46:21.353Z,15.54
2022-09-17T13:51:21.281Z,15.97
2022-09-17T13:56:21.468Z,16.09
2022-09-17T14:01:21.168Z,16.37
2022-09-17T14:06:21.468Z,16.53
2022-09-17T14:11:21.005Z,16.75
2022-09-17T14:16:20.991Z,16.45
2022-09-17T14:21:20.928Z,16.33
2022-09-17T14:26:20.809Z,15.94
2022-09-17T14:31:20.853Z,15.57
2022-09-17T14:36:20.710Z,15.59
2022-09-17T14:41:20.617Z,15.57
2022-09-17T14:46:20.572Z,15.54
2022-09-17T14:51:20.517Z,15.52
2022-09-17T14:56:20.381Z,15.35
2022-09-17T15:01:20.481Z,15.42
2022-09-17T15:06:20.281Z,15.39
2022-09-17T15:11:20.255Z,15.21
2022-09-17T15:16:20.371Z,15.23
2022-09-17T15:21:23.747Z,15.24
2022-09-17T15:26:20.035Z,15.13
2022-09-17T15:31:19.970Z,15.24
2022-09-17T15:36:20.709Z,15.27
2022-09-17T15:41:20.981Z,15.39
2022-09-17T15:46:19.798Z,15.56
2022-09-17T15:51:19.691Z,15.38
2022-09-17T15:56:19.617Z,15.28
2022-09-17T16:01:19.647Z,15.30
2022-09-17T16:06:19.650Z,15.31
2022-09-17T16:11:19.420Z,15.02
2022-09-17T16:16:19.438Z,14.88
2022-09-17T16:21:19.274Z,14.78
2022-09-17T16:26:19.214Z,14.61
2022-09-17T16:31:19.507Z,14.37
2022-09-17T16:36:19.830Z,14.29
2022-09-17T16:41:19.027Z,14.28
2022-09-17T16:46:19.052Z,14.14
2022-09-17T16:51:18.947Z,14.12
2022-09-17T16:56:18.827Z,14.13
2022-09-17T17:01:18.827Z,14.07
2022-09-17T17:06:18.752Z,13.55
2022-09-17T17:11:18.847Z,13.17
2022-09-17T17:16:18.591Z,12.95
2022-09-17T17:21:18.488Z,12.63
2022-09-17T17:26:18.443Z,12.39
2022-09-17T17:31:18.468Z,12.20
2022-09-17T17:36:18.284Z,12.02
2022-09-17T17:41:18.993Z,11.74
2022-09-17T17:46:18.322Z,11.57
2022-09-17T17:51:18.157Z,11.96
2022-09-17T17:56:18.054Z,12.23
2022-09-17T18:01:18.127Z,12.31
2022-09-17T18:06:17.906Z,12.39
2022-09-17T18:11:17.977Z,12.41
2022-09-17T18:16:17.951Z,12.33
2022-09-17T18:21:17.715Z,12.31
2022-09-17T18:26:17.683Z,12.11
2022-09-17T18:31:17.675Z,12.04
2022-09-17T18:36:17.618Z,12.01
2022-09-17T18:41:17.413Z,12.04
2022-09-17T18:46:17.413Z,12.05
2022-09-17T18:51:17.307Z,11.90
2022-09-17T18:56:17.244Z,11.85
2022-09-17T19:01:17.446Z,11.71
2022-09-17T19:06:17.106Z,11.52
2022-09-17T19:11:17.064Z,11.54
2022-09-17T19:16:17.199Z,11.65
2022-09-17T19:21:17.035Z,11.67
2022-09-17T19:26:16.891Z,11.72
2022-09-17T19:31:16.970Z,11.72
2022-09-17T19:36:16.685Z,11.85
2022-09-17T19:41:16.753Z,11.87
2022-09-17T19:46:16.651Z,12.01
2022-09-17T19:51:16.497Z,12.04
2022-09-17T19:56:16.448Z,11.99
2022-09-17T20:01:16.453Z,11.90
2022-09-17T20:06:16.311Z,11.86
2022-09-17T20:11:16.278Z,11.71
2022-09-17T20:16:16.242Z,11.70
2022-09-17T20:21:16.130Z,11.65
2022-09-17T20:26:16.216Z,11.56
2022-09-17T20:31:16.117Z,11.46
2022-09-17T20:36:15.964Z,11.35
2022-09-17T20:41:15.860Z,11.31
2022-09-17T20:46:15.834Z,11.14
2022-09-17T20:51:15.729Z,11.17
2022-09-17T20:56:15.660Z,11.03
2022-09-17T21:01:15.698Z,11.03
2022-09-17T21:06:15.516Z,10.99
2022-09-17T21:11:15.462Z,11.01
2022-09-17T21:16:15.456Z,10.99
2022-09-17T21:21:15.318Z,10.95
2022-09-17T21:26:15.274Z,10.96
2022-09-17T21:31:15.403Z,11.03
2022-09-17T21:36:15.143Z,11.01
2022-09-17T21:41:15.067Z,11.02
2022-09-17T21:46:15.062Z,11.01
2022-09-17T21:51:14.967Z,11.10
2022-09-17T21:56:14.987Z,11.14
2022-09-17T22:01:14.944Z,11.09
2022-09-17T22:06:14.738Z,11.02
2022-09-17T22:11:14.731Z,10.94
2022-09-17T22:16:14.664Z,10.77
2022-09-17T22:21:14.544Z,10.74
2022-09-17T22:26:14.470Z,10.86
2022-09-17T22:31:14.535Z,10.94
2022-09-17T22:36:14.547Z,10.89
2022-09-17T22:41:14.341Z,12.16
2022-09-17T22:46:14.324Z,12.45
2022-09-17T22:51:14.203Z,12.12
2022-09-17T22:56:14.071Z,11.82
2022-09-17T23:01:14.095Z,11.96
2022-09-17T23:06:13.990Z,12.27
2022-09-17T23:11:13.900Z,12.02
2022-09-17T23:16:13.982Z,12.26
2022-09-17T23:21:13.830Z,12.24
2022-09-17T23:26:13.748Z,11.93
2022-09-17T23:31:13.779Z,11.96
2022-09-17T23:36:13.553Z,12.27
2022-09-17T23:41:13.767Z,12.21
2022-09-17T23:46:13.449Z,12.24
2022-09-17T23:51:13.374Z,11.87
2022-09-17T23:56:13.286Z,11.62
